createdAt,value
2023-03-01T00:01:42.278Z,102467.59
2023-03-01T00:04:12.426Z,102466.72
2023-03-01T00:06:40.052Z,102465.84
2023-03-01T00:09:07.611Z,102461.50
2023-03-01T00:11:36.697Z,102472.81
2023-03-01T00:14:07.565Z,102465.00
2023-03-01T00:16:40.608Z,102462.41
2023-03-01T00:19:09.352Z,102467.63
2023-03-01T00:21:38.174Z,102463.28
2023-03-01T00:24:06.274Z,102466.78
2023-03-01T00:26:33.878Z,102463.34
2023-03-01T00:29:01.890Z,102456.41
2023-03-01T00:31:33.244Z,102465.97
2023-03-01T00:34:02.434Z,102453.81
2023-03-01T00:36:31.700Z,102453.81
2023-03-01T00:39:01.542Z,102456.47
2023-03-01T00:41:29.515Z,102453.84
2023-03-01T00:43:57.968Z,102450.41
2023-03-01T00:46:28.431Z,102449.53
2023-03-01T00:48:58.180Z,102448.66
2023-03-01T00:51:28.122Z,102450.44
2023-03-01T00:54:02.360Z,102444.41
2023-03-01T00:56:32.926Z,102440.06
2023-03-01T00:59:00.806Z,102439.19
2023-03-01T01:01:31.422Z,102445.31
2023-03-01T01:04:00.967Z,102446.16
2023-03-01T01:06:30.360Z,102446.16
2023-03-01T01:08:59.409Z,102448.78
2023-03-01T01:11:30.477Z,102447.94
2023-03-01T01:13:59.395Z,102458.41
2023-03-01T01:16:29.022Z,102449.72
2023-03-01T01:18:57.577Z,102450.59
2023-03-01T01:21:27.899Z,102448.88
2023-03-01T01:23:56.957Z,102441.91
2023-03-01T01:26:28.959Z,102431.50
2023-03-01T01:28:57.135Z,102435.03
2023-03-01T01:31:26.494Z,102431.53
2023-03-01T01:33:55.233Z,102430.69
2023-03-01T01:36:23.160Z,102424.66
2023-03-01T01:38:50.671Z,102425.53
2023-03-01T01:41:20.704Z,102433.34
2023-03-01T01:43:53.375Z,102429.06
2023-03-01T01:46:30.612Z,102433.41
2023-03-01T01:49:02.071Z,102429.03
2023-03-01T01:51:39.194Z,102425.56
2023-03-01T01:54:12.385Z,102411.69
2023-03-01T01:56:43.459Z,102404.75
2023-03-01T01:59:14.827Z,102403.03
2023-03-01T02:01:42.551Z,102409.09
2023-03-01T02:04:10.327Z,102406.53
2023-03-01T02:06:43.180Z,102397.84
2023-03-01T02:09:16.339Z,102397.84
2023-03-01T02:11:45.643Z,102394.38
2023-03-01T02:14:14.641Z,102399.63
2023-03-01T02:16:43.091Z,102388.31
2023-03-01T02:19:22.325Z,102393.56
2023-03-01T02:22:01.021Z,102391.84
2023-03-01T02:24:37.107Z,102387.50
2023-03-01T02:27:06.260Z,102394.47
2023-03-01T02:29:37.359Z,102387.53
2023-03-01T02:32:06.941Z,102384.91
2023-03-01T02:34:35.747Z,102390.13
2023-03-01T02:37:07.164Z,102386.69
2023-03-01T02:39:43.335Z,102383.25
2023-03-01T02:42:16.376Z,102383.25
2023-03-01T02:44:46.588Z,102378.06
2023-03-01T02:47:14.084Z,102378.94
2023-03-01T02:49:42.344Z,102396.31
2023-03-01T02:52:22.816Z,102384.16
2023-03-01T02:54:56.354Z,102390.25
2023-03-01T02:57:25.316Z,102391.13
2023-03-01T02:59:58.328Z,102392.88
2023-03-01T03:02:38.468Z,102396.34
2023-03-01T03:05:12.829Z,102385.94
2023-03-01T03:07:42.637Z,102384.22
2023-03-01T03:10:14.434Z,102379.91
2023-03-01T03:12:43.248Z,102382.53
2023-03-01T03:15:13.512Z,102366.91
2023-03-01T03:17:45.278Z,102372.13
2023-03-01T03:20:20.414Z,102372.13
2023-03-01T03:22:50.386Z,102379.06
2023-03-01T03:25:19.638Z,102380.81
2023-03-01T03:27:51.333Z,102371.28
2023-03-01T03:30:22.688Z,102376.50
2023-03-01T03:32:53.162Z,102374.78
2023-03-01T03:35:21.902Z,102356.56
2023-03-01T03:38:03.741Z,102357.44
2023-03-01T03:40:36.624Z,102363.53
2023-03-01T03:43:04.880Z,102359.19
2023-03-01T03:45:34.660Z,102354.00
2023-03-01T03:48:02.656Z,102353.16
2023-03-01T03:50:30.452Z,102348.78
2023-03-01T03:52:58.417Z,102354.91
2023-03-01T03:55:30.878Z,102346.22
2023-03-01T03:58:03.045Z,102350.59
2023-03-01T04:00:31.531Z,102351.44
2023-03-01T04:03:00.399Z,102354.91
2023-03-01T04:05:29.476Z,102352.31
2023-03-01T04:08:08.113Z,102356.69
2023-03-01T04:10:38.934Z,102344.56
2023-03-01T04:13:07.680Z,102348.88
2023-03-01T04:15:35.945Z,102343.69
2023-03-01T04:18:06.326Z,102341.09
2023-03-01T04:20:36.609Z,102338.50
2023-03-01T04:23:15.355Z,102341.97
2023-03-01T04:25:47.355Z,102331.56
2023-03-01T04:28:15.762Z,102326.38
2023-03-01T04:30:43.305Z,102324.66
2023-03-01T04:33:13.449Z,102322.94
2023-03-01T04:35:41.849Z,102329.88
2023-03-01T04:38:10.233Z,102325.53
2023-03-01T04:40:38.108Z,102329.88
2023-03-01T04:43:06.456Z,102317.75
2023-03-01T04:45:36.330Z,102322.09
2023-03-01T04:48:06.308Z,102318.63
2023-03-01T04:50:36.872Z,102323.81
2023-03-01T04:53:04.808Z,102334.25
2023-03-01T04:55:32.482Z,102330.81
2023-03-01T04:58:01.315Z,102329.06
2023-03-01T05:00:30.371Z,102327.34
2023-03-01T05:03:01.183Z,102329.09
2023-03-01T05:05:30.740Z,102331.69
2023-03-01T05:08:02.301Z,102323.88
2023-03-01T05:10:31.571Z,102328.22
2023-03-01T05:13:01.936Z,102324.78
2023-03-01T05:15:31.660Z,102323.91
2023-03-01T05:18:01.318Z,102323.94
2023-03-01T05:20:32.311Z,102328.25
2023-03-01T05:23:06.016Z,102330.03
2023-03-01T05:25:35.354Z,102324.81
2023-03-01T05:28:05.456Z,102326.56
2023-03-01T05:30:33.741Z,102334.38
2023-03-01T05:33:26.789Z,102332.66
2023-03-01T05:35:55.810Z,102335.28
2023-03-01T05:38:25.194Z,102324.88
2023-03-01T05:40:54.612Z,102337.88
2023-03-01T05:43:22.720Z,102327.47
2023-03-01T05:45:50.452Z,102334.44
2023-03-01T05:48:20.461Z,102330.97
2023-03-01T05:50:48.499Z,102331.00
2023-03-01T05:53:17.755Z,102319.72
2023-03-01T05:55:48.374Z,102321.47
2023-03-01T05:58:18.943Z,102324.09
2023-03-01T06:00:48.536Z,102324.06
2023-03-01T06:03:18.810Z,102324.97
2023-03-01T06:05:47.443Z,102321.50
2023-03-01T06:08:15.707Z,102316.31
2023-03-01T06:10:44.326Z,102313.72
2023-03-01T06:13:13.168Z,102311.97
2023-03-01T06:15:40.714Z,102315.47
2023-03-01T06:18:08.287Z,102311.13
2023-03-01T06:20:36.408Z,102314.59
2023-03-01T06:23:03.906Z,102318.94
2023-03-01T06:25:35.316Z,102314.59
2023-03-01T06:28:03.386Z,102318.09
2023-03-01T06:30:32.947Z,102319.81
2023-03-01T06:33:02.255Z,102324.13
2023-03-01T06:35:32.416Z,102320.66
2023-03-01T06:38:01.561Z,102326.75
2023-03-01T06:40:31.303Z,102320.69
2023-03-01T06:43:00.488Z,102324.16
2023-03-01T06:45:29.300Z,102330.19
2023-03-01T06:48:05.548Z,102328.47
2023-03-01T06:51:02.337Z,102319.81
2023-03-01T06:53:30.047Z,102322.44
2023-03-01T06:56:21.934Z,102316.34
2023-03-01T06:58:49.412Z,102327.59
2023-03-01T07:01:18.340Z,102317.22
2023-03-01T07:03:47.436Z,102318.97
2023-03-01T07:06:15.391Z,102314.63
2023-03-01T07:08:44.768Z,102309.41
2023-03-01T07:11:12.309Z,102312.00
2023-03-01T07:13:39.789Z,102308.53
2023-03-01T07:16:09.602Z,102311.13
2023-03-01T07:18:37.759Z,102314.56
2023-03-01T07:21:13.069Z,102310.22
2023-03-01T07:23:41.171Z,102312.78
2023-03-01T07:26:08.888Z,102308.44
2023-03-01T07:28:40.385Z,102297.16
2023-03-01T07:31:08.685Z,102303.16
2023-03-01T07:33:36.227Z,102306.56
2023-03-01T07:36:06.206Z,102303.84
2023-03-01T07:38:36.382Z,102300.22
2023-03-01T07:41:06.547Z,102295.66
2023-03-01T07:43:34.135Z,102298.97
2023-03-01T07:46:02.245Z,102295.31
2023-03-01T07:48:30.705Z,102291.66
2023-03-01T07:51:00.021Z,102302.69
2023-03-01T07:53:29.304Z,102298.13
2023-03-01T07:56:04.996Z,102296.13
2023-03-01T07:58:33.457Z,102298.50
2023-03-01T08:01:04.280Z,102293.09
2023-03-01T08:03:35.356Z,102288.50
2023-03-01T08:06:03.959Z,102287.38
2023-03-01T08:08:31.850Z,102290.66
2023-03-01T08:11:00.097Z,102286.06
2023-03-01T08:13:29.744Z,102290.16
2023-03-01T08:16:04.696Z,102293.41
2023-03-01T08:18:32.326Z,102291.53
2023-03-01T08:21:03.989Z,102295.72
2023-03-01T08:23:31.848Z,102289.47
2023-03-01T08:26:06.878Z,102290.13
2023-03-01T08:28:36.384Z,102287.19
2023-03-01T08:31:06.458Z,102281.78
2023-03-01T08:33:33.944Z,102284.03
2023-03-01T08:36:07.795Z,102280.03
2023-03-01T08:38:35.492Z,102274.44
2023-03-01T08:41:03.163Z,102265.22
2023-03-01T08:43:30.777Z,102267.31
2023-03-01T08:45:59.654Z,102264.38
2023-03-01T08:48:29.735Z,102265.88
2023-03-01T08:50:58.748Z,102269.16
2023-03-01T08:53:26.370Z,102268.19
2023-03-01T08:55:54.312Z,102276.84
2023-03-01T08:58:21.840Z,102278.44
2023-03-01T09:00:51.311Z,102269.72
2023-03-01T09:03:20.345Z,102261.53
2023-03-01T09:05:47.825Z,102262.59
2023-03-01T09:08:16.331Z,102265.50
2023-03-01T09:10:44.043Z,102262.13
2023-03-01T09:13:12.307Z,102262.59
2023-03-01T09:15:40.831Z,102256.28
2023-03-01T09:18:09.330Z,102252.75
2023-03-01T09:20:39.148Z,102256.66
2023-03-01T09:23:06.619Z,102253.56
2023-03-01T09:25:35.813Z,102248.81
2023-03-01T09:28:04.792Z,102249.19
2023-03-01T09:30:32.441Z,102250.69
2023-03-01T09:33:00.021Z,102251.41
2023-03-01T09:35:28.324Z,102239.97
2023-03-01T09:37:57.188Z,102241.72
2023-03-01T09:40:29.119Z,102241.28
2023-03-01T09:43:01.375Z,102240.38
2023-03-01T09:45:35.344Z,102232.47
2023-03-01T09:48:08.119Z,102236.66
2023-03-01T09:50:37.403Z,102238.31
2023-03-01T09:53:09.139Z,102238.31
2023-03-01T09:55:42.129Z,102229.13
2023-03-01T09:58:29.685Z,102226.06
2023-03-01T10:01:02.310Z,102225.91
2023-03-01T10:03:37.421Z,102225.50
2023-03-01T10:06:27.472Z,102224.47
2023-03-01T10:09:07.439Z,102223.59
2023-03-01T10:11:40.694Z,102224.06
2023-03-01T10:14:22.198Z,102222.06
2023-03-01T10:16:55.354Z,102206.00
2023-03-01T10:19:27.499Z,102210.44
2023-03-01T10:21:55.333Z,102207.41
2023-03-01T10:24:24.183Z,102206.53
2023-03-01T10:26:58.337Z,102208.88
2023-03-01T10:29:30.739Z,102205.03
2023-03-01T10:31:59.341Z,102207.53
2023-03-01T10:34:31.386Z,102200.06
2023-03-01T10:36:59.747Z,102201.84
2023-03-01T10:39:29.299Z,102209.75
2023-03-01T10:42:00.392Z,102204.66
2023-03-01T10:44:45.382Z,102198.66
2023-03-01T10:47:21.323Z,102199.34
2023-03-01T10:49:58.386Z,102203.25
2023-03-01T10:52:28.802Z,102184.81
2023-03-01T10:55:00.325Z,102185.34
2023-03-01T10:57:37.630Z,102183.38
2023-03-01T11:00:25.364Z,102179.03
2023-03-01T11:03:13.059Z,102183.50
2023-03-01T11:06:02.662Z,102177.91
2023-03-01T11:08:48.833Z,102182.13
2023-03-01T11:11:34.316Z,102176.06
2023-03-01T11:14:23.471Z,102178.44
2023-03-01T11:17:02.789Z,102170.66
2023-03-01T11:19:30.834Z,102167.97
2023-03-01T11:22:05.463Z,102160.19
2023-03-01T11:24:41.175Z,102162.97
2023-03-01T11:27:18.720Z,102153.38
2023-03-01T11:29:51.990Z,102169.13
2023-03-01T11:32:21.644Z,102169.59
2023-03-01T11:34:53.092Z,102164.59
2023-03-01T11:37:35.366Z,102159.13
2023-03-01T11:40:13.375Z,102158.94
2023-03-01T11:42:52.333Z,102158.81
2023-03-01T11:45:25.829Z,102158.47
2023-03-01T11:48:05.151Z,102154.94
2023-03-01T11:50:41.744Z,102147.13
2023-03-01T11:53:49.118Z,102156.44
2023-03-01T11:56:28.304Z,102154.72
2023-03-01T11:59:23.697Z,102148.47
2023-03-01T12:02:08.867Z,102150.94
2023-03-01T12:05:02.441Z,102142.09
2023-03-01T12:07:42.731Z,102138.22
2023-03-01T12:10:26.376Z,102144.41
2023-03-01T12:13:15.875Z,102140.94
2023-03-01T12:16:09.364Z,102133.88
2023-03-01T12:18:58.650Z,102130.38
2023-03-01T12:21:41.547Z,102125.66
2023-03-01T12:24:34.299Z,102111.19
2023-03-01T12:27:39.394Z,102114.94
2023-03-01T12:30:29.395Z,102101.75
2023-03-01T12:33:15.943Z,102109.47
2023-03-01T12:36:18.626Z,102095.28
2023-03-01T12:38:53.304Z,102097.78
2023-03-01T12:41:45.618Z,102094.97
2023-03-01T12:44:17.420Z,102094.09
2023-03-01T12:47:01.308Z,102091.47
2023-03-01T12:49:36.366Z,102085.31
2023-03-01T12:52:14.144Z,102075.34
2023-03-01T12:54:46.300Z,102071.72
2023-03-01T12:57:22.765Z,102064.84
2023-03-01T13:00:10.545Z,102060.22
2023-03-01T13:02:48.379Z,102049.16
2023-03-01T13:05:34.341Z,102058.38
2023-03-01T13:08:11.283Z,102053.44
2023-03-01T13:10:45.454Z,102045.75
2023-03-01T13:13:20.432Z,102045.97
2023-03-01T13:15:48.744Z,102049.81
2023-03-01T13:18:34.197Z,102042.97
2023-03-01T13:21:06.309Z,102033.06
2023-03-01T13:23:37.305Z,102035.31
2023-03-01T13:26:16.616Z,102034.09
2023-03-01T13:28:54.428Z,102036.16
2023-03-01T13:32:05.786Z,102037.53
2023-03-01T13:34:45.848Z,102040.94
2023-03-01T13:37:24.515Z,102033.59
2023-03-01T13:39:52.317Z,102035.28
2023-03-01T13:42:46.550Z,102030.00
2023-03-01T13:45:25.160Z,102025.81
2023-03-01T13:47:59.340Z,102023.31
2023-03-01T13:50:30.395Z,102024.19
2023-03-01T13:53:02.333Z,102022.66
2023-03-01T13:55:36.812Z,102012.09
2023-03-01T13:58:17.908Z,102014.22
2023-03-01T14:00:45.434Z,102005.53
2023-03-01T14:03:16.308Z,102000.97
2023-03-01T14:05:50.315Z,101996.03
2023-03-01T14:08:24.358Z,101995.84
2023-03-01T14:11:19.321Z,101995.13
2023-03-01T14:14:01.876Z,101993.38
2023-03-01T14:16:40.365Z,101977.22
2023-03-01T14:19:31.123Z,101986.63
2023-03-01T14:22:05.265Z,101978.06
2023-03-01T14:24:39.444Z,101970.28
2023-03-01T14:27:13.278Z,101974.72
2023-03-01T14:29:42.243Z,101972.91
2023-03-01T14:32:20.071Z,101973.84
2023-03-01T14:34:49.549Z,101972.16
2023-03-01T14:37:22.572Z,101959.88
2023-03-01T14:39:53.517Z,101961.59
2023-03-01T14:42:26.298Z,101952.63
2023-03-01T14:44:56.402Z,101945.75
2023-03-01T14:47:31.611Z,101949.22
2023-03-01T14:50:03.047Z,101944.78
2023-03-01T14:52:38.318Z,101941.13
2023-03-01T14:55:17.394Z,101939.44
2023-03-01T14:57:50.309Z,101949.31
2023-03-01T15:00:22.071Z,101943.94
2023-03-01T15:02:51.893Z,101939.81
2023-03-01T15:05:30.983Z,101936.41
2023-03-01T15:08:02.456Z,101939.81
2023-03-01T15:10:34.321Z,101935.78
2023-03-01T15:13:12.909Z,101931.50
2023-03-01T15:15:47.210Z,101924.38
2023-03-01T15:18:18.739Z,101913.94
2023-03-01T15:20:49.441Z,101915.81
2023-03-01T15:23:23.080Z,101917.75
2023-03-01T15:25:58.204Z,101920.44
2023-03-01T15:28:52.316Z,101917.66
2023-03-01T15:31:23.277Z,101915.38
2023-03-01T15:33:52.014Z,101911.66
2023-03-01T15:36:36.448Z,101919.72
2023-03-01T15:39:07.087Z,101912.66
2023-03-01T15:41:48.527Z,101906.69
2023-03-01T15:44:19.342Z,101915.38
2023-03-01T15:46:50.010Z,101906.00
2023-03-01T15:49:46.451Z,101900.72
2023-03-01T15:52:29.940Z,101902.41
2023-03-01T15:55:00.292Z,101906.78
2023-03-01T15:57:29.295Z,101903.44
2023-03-01T15:59:57.159Z,101909.03
2023-03-01T16:02:25.849Z,101896.81
2023-03-01T16:04:54.568Z,101901.41
2023-03-01T16:07:22.232Z,101905.75
2023-03-01T16:09:50.730Z,101899.75
2023-03-01T16:12:18.619Z,101892.09
2023-03-01T16:14:50.237Z,101898.22
2023-03-01T16:17:17.937Z,101890.50
2023-03-01T16:19:45.449Z,101892.53
2023-03-01T16:22:13.055Z,101890.94
2023-03-01T16:24:41.513Z,101889.25
2023-03-01T16:27:09.033Z,101891.34
2023-03-01T16:29:37.243Z,101888.78
2023-03-01T16:32:07.195Z,101887.22
2023-03-01T16:37:26.612Z,101899.75
2023-03-01T16:39:54.359Z,101894.88
2023-03-01T16:42:21.961Z,101901.16
2023-03-01T16:44:49.434Z,101900.22
2023-03-01T16:47:18.311Z,101896.00
2023-03-01T16:49:46.015Z,101904.13
2023-03-01T16:52:14.029Z,101900.84
2023-03-01T16:54:41.535Z,101898.47
2023-03-01T16:57:09.424Z,101902.22
2023-03-01T16:59:38.343Z,101905.06
2023-03-01T17:02:06.764Z,101905.34
2023-03-01T17:04:36.312Z,101907.28
2023-03-01T17:07:05.757Z,101911.00
2023-03-01T17:09:36.522Z,101911.28
2023-03-01T17:12:05.308Z,101903.56
2023-03-01T17:14:34.331Z,101914.22
2023-03-01T17:17:03.468Z,101911.94
2023-03-01T17:19:32.675Z,101913.06
2023-03-01T17:22:01.793Z,101907.16
2023-03-01T17:24:30.248Z,101904.72
2023-03-01T17:26:58.321Z,101905.88
2023-03-01T17:29:25.859Z,101914.16
2023-03-01T17:31:54.828Z,101921.41
2023-03-01T17:34:23.139Z,101914.69
2023-03-01T17:36:52.129Z,101918.44
2023-03-01T17:39:25.650Z,101912.78
2023-03-01T17:41:53.325Z,101922.63
2023-03-01T17:44:21.368Z,101917.63
2023-03-01T17:46:48.936Z,101919.66
2023-03-01T17:49:17.814Z,101919.91
2023-03-01T17:51:46.321Z,101928.06
2023-03-01T17:54:13.853Z,101934.50
2023-03-01T17:56:43.316Z,101932.13
2023-03-01T17:59:10.840Z,101939.41
2023-03-01T18:01:39.017Z,101936.16
2023-03-01T18:04:07.299Z,101939.94
2023-03-01T18:06:37.230Z,101930.56
2023-03-01T18:09:05.934Z,101940.41
2023-03-01T18:11:34.996Z,101945.91
2023-03-01T18:14:04.734Z,101947.06
2023-03-01T18:16:33.858Z,101946.44
2023-03-01T18:19:02.726Z,101942.34
2023-03-01T18:21:31.669Z,101939.09
2023-03-01T18:23:59.624Z,101937.56
2023-03-01T18:26:29.891Z,101938.72
2023-03-01T18:29:00.985Z,101938.94
2023-03-01T18:31:33.479Z,101938.31
2023-03-01T18:34:01.875Z,101936.75
2023-03-01T18:36:32.578Z,101934.31
2023-03-01T18:39:00.485Z,101927.47
2023-03-01T18:41:29.941Z,101923.22
2023-03-01T18:43:58.393Z,101927.78
2023-03-01T18:46:26.510Z,101927.94
2023-03-01T18:48:55.544Z,101922.88
2023-03-01T18:51:26.879Z,101918.63
2023-03-01T18:53:57.336Z,101922.31
2023-03-01T18:56:25.493Z,101915.44
2023-03-01T18:58:53.403Z,101912.13
2023-03-01T19:01:24.678Z,101902.53
2023-03-01T19:03:57.139Z,101906.03
2023-03-01T19:06:30.355Z,101911.34
2023-03-01T19:08:58.750Z,101911.25
2023-03-01T19:11:27.214Z,101915.56
2023-03-01T19:13:55.197Z,101918.06
2023-03-01T19:16:27.335Z,101922.38
2023-03-01T19:19:00.384Z,101917.13
2023-03-01T19:21:33.777Z,101926.81
2023-03-01T19:24:03.039Z,101927.78
2023-03-01T19:26:31.913Z,101922.63
2023-03-01T19:29:00.329Z,101927.16
2023-03-01T19:31:29.753Z,101930.78
2023-03-01T19:34:10.948Z,101929.16
2023-03-01T19:36:39.501Z,101940.72
2023-03-01T19:39:08.306Z,101935.63
2023-03-01T19:41:40.364Z,101933.16
2023-03-01T19:44:08.670Z,101929.94
2023-03-01T19:46:36.546Z,101930.94
2023-03-01T19:49:07.629Z,101934.63
2023-03-01T19:51:36.708Z,101927.75
2023-03-01T19:54:05.560Z,101933.97
2023-03-01T19:56:33.766Z,101925.31
2023-03-01T19:59:04.095Z,101925.38
2023-03-01T20:01:33.965Z,101921.91
2023-03-01T20:04:01.604Z,101924.59
2023-03-01T20:06:31.304Z,101926.34
2023-03-01T20:09:06.301Z,101922.91
2023-03-01T20:11:36.749Z,101922.97
2023-03-01T20:14:06.608Z,101920.38
2023-03-01T20:16:34.686Z,101917.78
2023-03-01T20:19:02.680Z,101919.56
2023-03-01T20:21:34.085Z,101916.13
2023-03-01T20:24:02.208Z,101915.34
2023-03-01T20:26:30.059Z,101913.66
2023-03-01T20:28:58.071Z,101919.81
2023-03-01T20:31:29.053Z,101930.31
2023-03-01T20:33:58.706Z,101914.56
2023-03-01T20:36:26.573Z,101912.00
2023-03-01T20:38:55.923Z,101913.78
2023-03-01T20:41:25.853Z,101912.94
2023-03-01T20:43:57.320Z,101914.75
2023-03-01T20:46:26.656Z,101915.75
2023-03-01T20:48:54.877Z,101917.56
2023-03-01T20:51:23.306Z,101918.56
2023-03-01T20:53:51.124Z,101920.44
2023-03-01T20:56:21.693Z,101918.75
2023-03-01T20:59:05.428Z,101926.75
2023-03-01T21:01:33.711Z,101919.91
2023-03-01T21:04:01.305Z,101919.13
2023-03-01T21:06:29.158Z,101930.59
2023-03-01T21:08:56.907Z,101932.41
2023-03-01T21:11:26.059Z,101932.53
2023-03-01T21:13:53.933Z,101923.81
2023-03-01T21:16:22.666Z,101923.94
2023-03-01T21:18:50.668Z,101926.63
2023-03-01T21:21:20.962Z,101928.44
2023-03-01T21:23:48.886Z,101932.00
2023-03-01T21:26:19.304Z,101931.19
2023-03-01T21:28:50.096Z,101937.38
2023-03-01T21:31:19.510Z,101932.22
2023-03-01T21:33:49.225Z,101937.56
2023-03-01T21:36:17.277Z,101941.09
2023-03-01T21:38:47.360Z,101929.03
2023-03-01T21:41:17.315Z,101925.63
2023-03-01T21:43:49.118Z,101920.47
2023-03-01T21:46:20.330Z,101916.13
2023-03-01T21:48:49.756Z,101916.09
2023-03-01T21:51:19.598Z,101920.47
2023-03-01T21:53:47.489Z,101922.16
2023-03-01T21:56:17.654Z,101919.47
2023-03-01T21:58:46.090Z,101921.19
2023-03-01T22:01:17.077Z,101916.91
2023-03-01T22:03:48.393Z,101909.09
2023-03-01T22:06:19.476Z,101906.56
2023-03-01T22:08:48.362Z,101907.53
2023-03-01T22:11:19.305Z,101906.69
2023-03-01T22:13:49.426Z,101900.69
2023-03-01T22:16:20.203Z,101896.38
2023-03-01T22:18:48.430Z,101895.63
2023-03-01T22:21:17.017Z,101889.56
2023-03-01T22:23:44.706Z,101889.59
2023-03-01T22:26:23.440Z,101890.56
2023-03-01T22:28:51.776Z,101896.69
2023-03-01T22:31:21.250Z,101891.53
2023-03-01T22:33:50.460Z,101897.69
2023-03-01T22:36:18.259Z,101900.34
2023-03-01T22:38:46.163Z,101893.38
2023-03-01T22:41:13.980Z,101882.97
2023-03-01T22:43:41.624Z,101876.00
2023-03-01T22:46:14.466Z,101881.28
2023-03-01T22:48:43.496Z,101874.34
2023-03-01T22:51:15.519Z,101878.69
2023-03-01T22:53:43.240Z,101877.88
2023-03-01T22:56:13.841Z,101874.41
2023-03-01T22:58:41.440Z,101875.31
2023-03-01T23:01:13.847Z,101889.25
2023-03-01T23:03:42.777Z,101882.19
2023-03-01T23:06:12.316Z,101882.19
2023-03-01T23:08:40.315Z,101880.44
2023-03-01T23:11:13.667Z,101877.81
2023-03-01T23:13:41.396Z,101871.75
2023-03-01T23:16:09.711Z,101876.97
2023-03-01T23:18:37.331Z,101864.75
2023-03-01T23:21:10.567Z,101869.94
2023-03-01T23:23:38.588Z,101866.34
2023-03-01T23:26:07.050Z,101861.91
2023-03-01T23:28:35.144Z,101867.94
2023-03-01T23:31:04.507Z,101866.97
2023-03-01T23:33:37.664Z,101863.38
2023-03-01T23:36:07.289Z,101862.50
2023-03-01T23:38:37.067Z,101853.75
2023-03-01T23:41:04.870Z,101856.38
2023-03-01T23:43:33.077Z,101844.19
2023-03-01T23:46:01.434Z,101849.44
2023-03-01T23:48:29.979Z,101851.16
2023-03-01T23:50:57.537Z,101854.69
2023-03-01T23:53:25.134Z,101853.03
2023-03-01T23:55:55.131Z,101859.19
2023-03-01T23:58:28.223Z,101854.97
